• Join FlightAware (Why Join?)
  • Login
  • US Flag 
05:27PM EST


 

Airport Tracker/Info


-or-


 

Live Flight TrackerFlight Track Log ✈ N379PK ✈ 30-Sep-2013 ✈ KRLD - KBOI

Flight Track Log - Related Links

Times and Time Zones

All times are in EDT time to prevent confusion due to time zone crossing. See the N379PK flight status page for this flight to view local times or setup timezone preferences in your user account.

Time Position Orientation Groundspeed Altitude Reporting Facility
EDT Latitude Longitude Course Direction KTS MPH feet Rate Location/Type
02:22PM 46.1117 -119.1725 140° Southeast 188 216 12,500  Level Seattle Center
02:23PM 46.0622 -119.1125 140° Southeast 194 223 15,400 2,580 Climbing Seattle Center
02:24PM 46.0197 -119.0603 140° Southeast 200 230 17,800 2,100 Climbing Seattle Center
02:25PM 45.9747 -119.0089 142° Southeast 203 234 19,700 1,740 Climbing Seattle Center
02:26PM 45.9244 -118.9469 139° Southeast 221 254 21,400 1,560 Climbing Seattle Center
02:27PM 45.8706 -118.8911 144° Southeast 234 269 22,900 780 Climbing Seattle Center
02:28PM 45.8111 -118.8286 144° Southeast 249 287 23,100 60 Climbing Seattle Center
02:29PM 45.7433 -118.7547 143° Southeast 281 323 23,100 -60 Level Seattle Center
02:30PM 45.6725 -118.6797 143° Southeast 305 351 23,000 -60 Descending Seattle Center
02:31PM 45.6033 -118.6056 143° Southeast 310 357 23,000  Level Seattle Center
02:32PM 45.5344 -118.5344 144° Southeast 308 354 23,000  Level Seattle Center
02:33PM 45.4639 -118.4592 143° Southeast 313 360 23,000  Level Seattle Center
02:34PM 45.3950 -118.3856 143° Southeast 312 359 23,000  Level Seattle Center
02:35PM 45.3253 -118.3139 144° Southeast 311 358 23,000  Level Seattle Center
02:36PM 45.2569 -118.2428 144° Southeast 307 353 23,000  Level Seattle Center
02:37PM 45.1728 -118.1544 143° Southeast 311 358 23,000  Level Seattle Center
02:38PM 45.1033 -118.0825 144° Southeast 311 358 23,000  Level Seattle Center
02:39PM 45.0333 -118.0097 144° Southeast 312 359 23,000  Level Seattle Center
02:40PM 44.9614 -117.9356 144° Southeast 317 365 23,000  Level Seattle Center
02:41PM 44.8906 -117.8639 144° Southeast 315 362 23,000  Level Seattle Center
02:42PM 44.8236 -117.7922 143° Southeast 307 353 23,000  Level Seattle Center
02:43PM 44.7619 -117.7097 136° Southeast 307 353 23,000  Level Seattle Center
02:44PM 44.6989 -117.6292 138° Southeast 307 353 23,000  Level Seattle Center
02:45PM 44.6350 -117.5464 137° Southeast 310 357 23,000  Level Seattle Center
02:46PM 44.5700 -117.4644 138° Southeast 313 360 23,000  Level Seattle Center
02:47PM 44.5050 -117.3814 138° Southeast 316 364 23,000 -60 Level Seattle Center
02:48PM 44.4411 -117.3006 138° Southeast 312 359 22,900 -840 Descending Seattle Center
02:49PM 44.3583 -117.1967 138° Southeast 328 377 21,300 -1,500 Descending Seattle Center
02:50PM 44.3275 -117.1594 139° Southeast 340 391 20,700 -1,200 Descending Salt Lake Center
02:51PM 44.2594 -117.0725 138° Southeast 332 382 19,500 -1,200 Descending Salt Lake Center
02:52PM 44.1892 -116.9875 139° Southeast 334 384 18,300 -1,260 Descending Salt Lake Center
02:52PM 44.1722 -116.9133 108° East 331 381 17,700 -1,500 Descending Salt Lake Center
02:53PM 44.1133 -116.8889 163° South 328 377 16,800 -1,560 Descending Salt Lake Center
02:53PM 44.0967 -116.8239 110° East 308 354 16,000 -1,560 Descending Salt Lake Center
02:54PM 44.0500 -116.8072 166° South 301 346 15,200 -1,320 Descending Salt Lake Center
02:54PM 44.0394 -116.7600 107° East 284 327 14,800 -1,200 Descending Salt Lake Center
02:55PM 43.9864 -116.7289 157° South 292 336 14,000 -1,200 Descending Salt Lake Center
02:55PM 43.9778 -116.6861 106° East 293 337 13,600 -1,380 Descending Salt Lake Center
02:56PM 43.9233 -116.6497 154° Southeast 293 337 12,600 -1,320 Descending Salt Lake Center
02:56PM 43.9183 -116.6025 98° East 294 338 12,300 -1,380 Descending Salt Lake Center
02:57PM 43.8842 -116.5528 134° Southeast 304 350 11,200 -1,440 Descending Salt Lake Center
02:57PM 43.8731 -116.4947 105° East 303 349 10,700 -900 Descending Salt Lake Center
02:58PM 43.8450 -116.4481 130° Southeast 296 341 10,300 -480 Descending Salt Lake Center
02:59PM 43.8042 -116.3481 119° Southeast 288 331 10,000 -300 Descending Salt Lake Center
02:59PM 43.8039 -116.3283 91° East 284 327 10,000 -720 Level Salt Lake Center
03:00PM 43.7558 -116.2589 134° Southeast 279 321 9,300 -840 Descending Salt Lake Center
03:00PM 43.7533 -116.2475 107° East 278 320 9,200 -1,140 Descending Salt Lake Center
03:01PM 43.6964 -116.1964 147° Southeast 272 313 8,200 -1,140 Descending Salt Lake Center
03:01PM 43.6892 -116.1983 191° South 274 315 8,100 -300 Descending Salt Lake Center
03:02PM 43.6247 -116.1486 151° Southeast 259 298 7,900 -720 Descending Salt Lake Center
03:03PM 43.5719 -116.1169 157° South 214 246 6,800 -1,260 Descending Salt Lake Center
03:03PM 43.5694 -116.1167 175° South 229 264 6,600 -2,400 Descending Salt Lake Center
03:04PM 43.5344 -116.1447 210° Southwest 141 162 4,400 -2,340 Descending Salt Lake Center
03:04PM 43.5353 -116.1464 305° West 156 180 4,200 -1,020 Descending Salt Lake Center
03:05PM 43.5514 -116.1914 296° West 119 137 3,300 -540 Descending Salt Lake Center
03:05PM 43.5517 -116.1894 79° East 137 158 3,700 7,980 Climbing Salt Lake Center
03:07PM 43.5500 -116.2167 285° West  Level FlightAware Approximate